Christiansted, VI (00820)

12:39 PM AST on September 01, 2015 (GMT -0400)
Work & Rest Estate | | Change Station
CLOSE
Current Station
Personal Weather Station
Location: Christiansted, ST. CROIX
Elevation: 289 ft
Nearby Weather Stations

Elev 289 ft 17.72 °N, 64.72 °W | Updated 10 seconds ago

Scattered Clouds
Scattered Clouds
88.7 °F
Feels Like 105 °F
N
2.9
Wind Variable Wind from SE
Gusts 4.9 mph

Today
High -- | Low -- °F
--% Chance of Precip.
Yesterday
High -- | Low -- °F
Precip. -- in
6:04 AM 6:32 PM
Waning Gibbous, 88% visible
Pressure 30.04 in
Visibility 10.0 miles
Clouds Scattered Clouds 2600 ft
Heat Index 105 °F
Dew Point 79 °F
Humidity 74%
Rainfall 0.15 in
Snow Depth Not available.
UV 8.0 out of 12
Pollen Not available.
Air Quality Not available.
Flu Activity Not available.
METAR TISX 011553Z 11011KT 10SM SCT026 31/25 A3004 RMK AO2 SLP170 T03110250
Pressure 30.04 in
Visibility 10.0 miles
Clouds Scattered Clouds 2600 ft
Heat Index 105 °F
Dew Point 79 °F
Humidity 74%
Rainfall 0.15 in
Snow Depth Not available.
UV 8.0 out of 12
Pollen Not available.
Air Quality Not available.
Flu Activity Not available.
METAR TISX 011553Z 11011KT 10SM SCT026 31/25 A3004 RMK AO2 SLP170 T03110250

10-Day Weather Forecast

×

Almanac

Astronomy

Sep. 01, 2015 Rise Set
Actual Time
Civil Twilight
Nautical Twilight
Astronomical Twilight
Moon
Length of Visible Light
Length of Day
Tomorrow will be .
, % of the Moon is Illuminated

Today's Extremes

State Highs State Lows

Community

WunderPhotos

Upload Photos

1,851,548 photos uploaded!

WunderBlogs® & News

Nearby

Air Quality

  Air Quality AQ Index Pollutant
Not available.

Snow Depth

Station Depth Elevation

Earthquake Activity

City Distance Mag. Time & Date
Minimum magnitude displayed is 2.5.

Coastal Water Temperatures

Place Temperature

Stations

Nearby Weather Stations

Station Location Temp. Windchill Dew Point Humidity Wind Precip. Elev Updated Type